메인 페이지
METAR-TAF:

METAR-TAF

공항 :

Belgaum, 인도

위도: 15-51-33N, 경도: 74-37-03E, 고도: 758m

현재 날씨관측

예보는 57분 전, 04:00시(UTC)에 발표되었습니다.
6kt
온도 27°C
습도 70%
기압 1019 hPa
시정: 6000m
고도 1500ft 상공 구름 보통
고도 8000ft 상공 구름 보통

METAR: VOBM 160400Z 09006KT 6000 SCT015 SCT080 27/21 Q1019

시각: 10:27 (04:57 UTC)

예보

예보는 2 시간 57분 전, 02:00시(UTC)에 발표되었습니다.
예보 대상 시간: 16일 03시부터 16일 12시까지 (UTC)
5kt
시정: 8000m
고도 1200ft 상공 구름 보통
일시적
16일 09시부터 16일 12시까지 (UTC)
시정: 3000m
고도 1200ft 상공 구름 보통
고도 2000ft 상공 구름 보통
고도 2500ft 상공 구름 조금, 적란운.
뇌우, 비, 비

TAF: VOBM 160200Z 1603/1612 09005KT 8000 SCT012 TEMPO 1609/1612 3000 TSRA RA SCT012 SCT020 FEW025CB

4,000개 이상의 공항 관측 자료 및 예보 (METAR 및 TAF 보고).

지도상에서 검색 가능한 기상관측소가 노란 점과 빨간 점으로 표시되어 있습니다.

기상관측소 명을 보려면 표시 위로 마우스를 이동하세요.

날씨 관측과 예보를 보려면 클릭하세요.

지도 변경 : 확대하려면 엑스 표시가 있는 녹색 버튼, 축소하려면 빼기 표시가 있는 녹색 버튼, 다음 페이지의 지도를 보려면 녹색 화살표를 클릭하세요.


METAR-TAF: